createdAt,value
2023-03-15T00:02:07.906Z,3.10
2023-03-15T00:04:37.151Z,2.60
2023-03-15T00:07:05.174Z,2.60
2023-03-15T00:09:33.004Z,2.30
2023-03-15T00:12:00.914Z,2.70
2023-03-15T00:14:28.750Z,2.80
2023-03-15T00:16:56.513Z,3.00
2023-03-15T00:19:24.319Z,2.80
2023-03-15T00:21:52.056Z,2.10
2023-03-15T00:24:19.957Z,2.50
2023-03-15T00:26:47.773Z,2.70
2023-03-15T00:29:15.640Z,2.50
2023-03-15T00:31:43.373Z,3.10
2023-03-15T00:34:14.022Z,2.60
2023-03-15T00:36:43.824Z,2.60
2023-03-15T00:39:12.615Z,2.60
2023-03-15T00:41:40.403Z,2.90
2023-03-15T00:44:08.076Z,2.60
2023-03-15T00:46:35.990Z,2.70
2023-03-15T00:49:04.324Z,2.60
2023-03-15T00:51:33.539Z,3.00
2023-03-15T00:54:01.492Z,2.60
2023-03-15T00:56:30.457Z,2.70
2023-03-15T00:58:59.077Z,2.90
2023-03-15T01:01:29.619Z,3.20
2023-03-15T01:03:57.867Z,2.70
2023-03-15T01:06:28.729Z,2.50
2023-03-15T01:08:57.525Z,2.10
2023-03-15T01:11:27.989Z,2.80
2023-03-15T01:13:58.675Z,2.50
2023-03-15T01:16:28.006Z,3.50
2023-03-15T01:18:56.158Z,2.50
2023-03-15T01:21:24.289Z,1.90
2023-03-15T01:23:53.451Z,2.20
2023-03-15T01:26:21.656Z,2.20
2023-03-15T01:28:49.903Z,1.90
2023-03-15T01:31:20.582Z,1.60
2023-03-15T01:33:48.512Z,2.50
2023-03-15T01:36:17.144Z,2.60
2023-03-15T01:38:45.482Z,1.50
2023-03-15T01:41:14.322Z,2.00
2023-03-15T01:43:49.111Z,1.80
2023-03-15T01:46:34.980Z,1.80
2023-03-15T01:49:12.996Z,2.10
2023-03-15T01:51:52.543Z,2.00
2023-03-15T01:54:34.719Z,1.60
2023-03-15T01:57:02.586Z,1.70
2023-03-15T01:59:33.656Z,2.30
2023-03-15T02:02:02.309Z,1.70
2023-03-15T02:04:35.017Z,1.70
2023-03-15T02:07:04.266Z,1.70
2023-03-15T02:09:48.316Z,1.80
2023-03-15T02:12:16.801Z,1.70
2023-03-15T02:14:45.270Z,1.50
2023-03-15T02:17:13.291Z,2.50
2023-03-15T02:20:06.896Z,1.60
2023-03-15T02:22:43.616Z,1.30
2023-03-15T02:25:17.289Z,2.60
2023-03-15T02:27:45.429Z,1.40
2023-03-15T02:30:16.426Z,1.80
2023-03-15T02:32:45.059Z,1.80
2023-03-15T02:35:12.945Z,1.70
2023-03-15T02:37:46.003Z,1.60
2023-03-15T02:40:20.529Z,1.60
2023-03-15T02:42:51.529Z,1.70
2023-03-15T02:45:19.862Z,1.90
2023-03-15T02:47:48.498Z,2.20
2023-03-15T02:50:16.884Z,2.00
2023-03-15T02:52:45.198Z,2.00
2023-03-15T02:55:13.107Z,1.80
2023-03-15T02:57:40.995Z,2.30
2023-03-15T03:00:14.399Z,1.60
2023-03-15T03:02:44.219Z,1.80
2023-03-15T03:05:14.265Z,1.60
2023-03-15T03:07:45.616Z,1.90
2023-03-15T03:10:15.913Z,1.80
2023-03-15T03:12:43.783Z,1.40
2023-03-15T03:15:11.720Z,1.90
2023-03-15T03:17:39.744Z,1.80
2023-03-15T03:20:11.776Z,1.90
2023-03-15T03:22:41.952Z,2.10
2023-03-15T03:25:10.995Z,1.70
2023-03-15T03:27:42.024Z,2.00
2023-03-15T03:30:12.558Z,1.70
2023-03-15T03:32:41.301Z,1.70
2023-03-15T03:35:09.542Z,1.90
2023-03-15T03:37:37.551Z,1.60
2023-03-15T03:40:08.419Z,1.50
2023-03-15T03:42:36.173Z,1.90
2023-03-15T03:45:04.445Z,1.40
2023-03-15T03:47:32.674Z,1.90
2023-03-15T03:50:00.432Z,1.50
2023-03-15T03:52:28.389Z,1.20
2023-03-15T03:54:56.435Z,1.80
2023-03-15T03:57:24.289Z,2.00
2023-03-15T03:59:52.045Z,2.00
2023-03-15T04:02:19.859Z,2.30
2023-03-15T04:04:50.492Z,2.00
2023-03-15T04:07:18.360Z,2.50
2023-03-15T04:09:46.286Z,2.10
2023-03-15T04:12:14.227Z,1.80
2023-03-15T04:14:42.677Z,1.80
2023-03-15T04:17:11.131Z,2.00
2023-03-15T04:19:38.947Z,1.90
2023-03-15T04:22:07.012Z,1.70
2023-03-15T04:24:35.488Z,1.80
2023-03-15T04:27:04.189Z,2.00
2023-03-15T04:29:32.093Z,1.50
2023-03-15T04:32:01.746Z,1.80
2023-03-15T04:34:29.997Z,2.10
2023-03-15T04:36:58.092Z,1.40
2023-03-15T04:39:26.177Z,2.40
2023-03-15T04:41:55.071Z,1.80
2023-03-15T04:44:26.891Z,1.60
2023-03-15T04:46:55.224Z,2.20
2023-03-15T04:49:23.091Z,2.10
2023-03-15T04:51:51.037Z,1.90
2023-03-15T04:54:18.982Z,2.40
2023-03-15T04:56:46.799Z,1.60
2023-03-15T04:59:14.565Z,2.60
2023-03-15T05:01:42.630Z,1.60
2023-03-15T05:04:10.390Z,2.30
2023-03-15T05:06:40.726Z,1.90
2023-03-15T05:09:08.606Z,2.40
2023-03-15T05:11:36.686Z,2.30
2023-03-15T05:14:04.532Z,1.70
2023-03-15T05:16:33.028Z,2.10
2023-03-15T05:19:00.938Z,2.90
2023-03-15T05:21:28.868Z,2.10
2023-03-15T05:23:56.681Z,2.10
2023-03-15T05:26:24.876Z,1.80
2023-03-15T05:28:52.755Z,1.90
2023-03-15T05:31:20.984Z,3.00
2023-03-15T05:33:50.165Z,2.10
2023-03-15T05:36:18.582Z,2.80
2023-03-15T05:38:46.552Z,2.00
2023-03-15T05:41:18.359Z,2.50
2023-03-15T05:43:46.109Z,2.50
2023-03-15T05:46:14.259Z,2.90
2023-03-15T05:48:42.212Z,2.00
2023-03-15T05:51:10.073Z,2.20
2023-03-15T05:53:37.880Z,1.60
2023-03-15T05:56:06.027Z,3.00
2023-03-15T05:58:36.666Z,1.70
2023-03-15T06:01:05.027Z,2.30
2023-03-15T06:03:32.958Z,2.10
2023-03-15T06:06:01.128Z,2.30
2023-03-15T06:08:29.187Z,2.50
2023-03-15T06:10:57.189Z,2.50
2023-03-15T06:13:25.135Z,2.20
2023-03-15T06:15:52.867Z,2.30
2023-03-15T06:18:20.647Z,1.80
2023-03-15T06:20:48.440Z,2.50
2023-03-15T06:23:16.224Z,1.70
2023-03-15T06:25:45.516Z,1.80
2023-03-15T06:28:13.253Z,2.30
2023-03-15T06:30:41.657Z,3.00
2023-03-15T06:33:09.596Z,2.60
2023-03-15T06:35:37.389Z,2.00
2023-03-15T06:38:05.188Z,1.90
2023-03-15T06:40:33.103Z,2.40
2023-03-15T06:43:06.050Z,2.20
2023-03-15T06:48:01.693Z,1.40
2023-03-15T06:50:40.514Z,1.80
2023-03-15T06:53:14.216Z,2.70
2023-03-15T06:55:42.150Z,2.40
2023-03-15T06:58:10.133Z,2.00
2023-03-15T07:00:38.366Z,1.80
2023-03-15T07:03:06.216Z,2.10
2023-03-15T07:05:34.004Z,2.00
2023-03-15T07:08:02.076Z,2.10
2023-03-15T07:10:29.866Z,2.00
2023-03-15T07:12:58.010Z,1.90
2023-03-15T07:15:26.256Z,1.90
2023-03-15T07:17:54.281Z,2.20
2023-03-15T07:20:22.037Z,2.90
2023-03-15T07:22:49.997Z,2.40
2023-03-15T07:25:24.057Z,2.10
2023-03-15T07:27:53.280Z,2.60
2023-03-15T07:30:21.325Z,2.30
2023-03-15T07:32:49.293Z,1.70
2023-03-15T07:35:18.335Z,2.20
2023-03-15T07:37:46.366Z,2.20
2023-03-15T07:40:16.349Z,2.10
2023-03-15T07:42:44.155Z,2.10
2023-03-15T07:45:12.370Z,2.60
2023-03-15T07:47:41.081Z,1.90
2023-03-15T07:50:09.530Z,2.20
2023-03-15T07:52:37.345Z,2.30
2023-03-15T07:55:08.442Z,2.40
2023-03-15T07:57:36.421Z,1.80
2023-03-15T08:00:05.910Z,2.20
2023-03-15T08:02:34.018Z,1.80
2023-03-15T08:05:01.973Z,2.10
2023-03-15T08:07:29.826Z,1.80
2023-03-15T08:10:01.935Z,1.70
2023-03-15T08:12:30.968Z,2.00
2023-03-15T08:14:59.334Z,1.70
2023-03-15T08:17:27.116Z,2.20
2023-03-15T08:19:55.017Z,1.90
2023-03-15T08:22:24.071Z,2.00
2023-03-15T08:24:53.381Z,2.00
2023-03-15T08:27:21.351Z,1.70
2023-03-15T08:29:49.084Z,1.80
2023-03-15T08:32:18.099Z,2.10
2023-03-15T08:34:46.282Z,2.10
2023-03-15T08:37:14.491Z,2.30
2023-03-15T08:39:42.457Z,1.90
2023-03-15T08:42:10.638Z,2.10
2023-03-15T08:44:38.466Z,2.10
2023-03-15T08:47:06.503Z,2.70
2023-03-15T08:49:34.387Z,2.10
2023-03-15T08:52:02.252Z,2.00
2023-03-15T08:54:30.135Z,2.10
2023-03-15T08:56:58.041Z,2.20
2023-03-15T08:59:31.889Z,1.90
2023-03-15T09:02:01.400Z,2.00
2023-03-15T09:04:30.667Z,1.90
2023-03-15T09:06:59.060Z,2.00
2023-03-15T09:09:27.496Z,2.90
2023-03-15T09:11:56.400Z,2.00
2023-03-15T09:14:24.363Z,2.10
2023-03-15T09:16:52.542Z,2.00
2023-03-15T09:19:20.475Z,2.20
2023-03-15T09:21:48.491Z,1.90
2023-03-15T09:24:16.744Z,2.60
2023-03-15T09:26:44.633Z,2.80
2023-03-15T09:29:12.359Z,2.00
2023-03-15T09:31:40.297Z,1.70
2023-03-15T09:34:08.028Z,2.10
2023-03-15T09:36:36.089Z,1.50
2023-03-15T09:39:04.350Z,1.50
2023-03-15T09:41:45.737Z,1.50
2023-03-15T09:44:19.451Z,2.00
2023-03-15T09:47:11.803Z,1.90
2023-03-15T09:49:49.790Z,1.90
2023-03-15T09:52:29.660Z,2.30
2023-03-15T09:55:05.441Z,2.10
2023-03-15T09:57:45.786Z,2.00
2023-03-15T10:00:16.810Z,1.80
2023-03-15T10:02:53.397Z,1.60
2023-03-15T10:05:26.267Z,1.70
2023-03-15T10:10:28.215Z,1.40
2023-03-15T10:13:06.673Z,1.40
2023-03-15T10:15:59.608Z,2.00
2023-03-15T10:18:58.878Z,2.90
2023-03-15T10:21:51.513Z,2.40
2023-03-15T10:24:23.091Z,1.60
2023-03-15T10:26:51.750Z,1.50
2023-03-15T10:29:21.670Z,1.60
2023-03-15T10:31:53.007Z,2.00
2023-03-15T10:34:23.122Z,1.80
2023-03-15T10:36:55.905Z,1.50
2023-03-15T10:39:26.132Z,2.10
2023-03-15T10:41:53.930Z,2.10
2023-03-15T10:44:24.423Z,1.60
2023-03-15T10:47:23.583Z,1.50
2023-03-15T10:49:58.546Z,0.80
2023-03-15T10:52:38.613Z,1.90
2023-03-15T10:55:07.910Z,1.90
2023-03-15T10:57:39.611Z,2.20
2023-03-15T11:00:19.579Z,1.70
2023-03-15T11:03:01.589Z,1.40
2023-03-15T11:05:51.021Z,1.60
2023-03-15T11:08:21.075Z,2.00
2023-03-15T11:10:59.766Z,2.40
2023-03-15T11:13:30.398Z,2.00
2023-03-15T11:16:07.390Z,1.80
2023-03-15T11:18:38.734Z,1.60
2023-03-15T11:21:12.314Z,1.60
2023-03-15T11:23:44.260Z,1.80
2023-03-15T11:26:33.603Z,1.50
2023-03-15T11:29:06.168Z,1.30
2023-03-15T11:31:34.414Z,2.00
2023-03-15T11:34:09.506Z,1.50
2023-03-15T11:36:40.622Z,1.40
2023-03-15T11:39:13.866Z,1.60
2023-03-15T11:41:57.003Z,1.50
2023-03-15T11:44:39.781Z,1.30
2023-03-15T11:47:24.219Z,1.40
2023-03-15T11:49:54.442Z,1.40
2023-03-15T11:52:24.371Z,1.20
2023-03-15T11:54:55.937Z,1.50
2023-03-15T11:57:49.969Z,1.60
2023-03-15T12:00:18.325Z,1.60
2023-03-15T12:02:56.119Z,1.90
2023-03-15T12:05:51.317Z,1.60
2023-03-15T12:08:26.228Z,1.20
2023-03-15T12:10:54.275Z,1.30
2023-03-15T12:13:35.581Z,1.40
2023-03-15T12:16:06.685Z,1.30
2023-03-15T12:18:43.860Z,1.40
2023-03-15T12:21:20.855Z,1.30
2023-03-15T12:23:49.967Z,2.10
2023-03-15T12:26:50.017Z,1.30
2023-03-15T12:29:26.385Z,1.80
2023-03-15T12:32:00.505Z,1.60
2023-03-15T12:34:43.185Z,1.40
2023-03-15T12:37:37.059Z,1.60
2023-03-15T12:40:18.829Z,2.00
2023-03-15T12:42:46.982Z,1.40
2023-03-15T12:45:18.125Z,1.10
2023-03-15T12:47:52.434Z,1.60
2023-03-15T12:50:37.901Z,1.70
2023-03-15T12:53:16.883Z,1.20
2023-03-15T12:55:45.405Z,2.30
2023-03-15T12:58:13.566Z,2.20
2023-03-15T13:00:43.250Z,1.90
2023-03-15T13:03:22.747Z,1.80
2023-03-15T13:06:04.391Z,1.50
2023-03-15T13:08:50.761Z,2.10
2023-03-15T13:11:49.940Z,2.00
2023-03-15T13:14:43.246Z,1.70
2023-03-15T13:17:29.620Z,1.80
2023-03-15T13:20:23.612Z,1.50
2023-03-15T13:23:30.338Z,2.00
2023-03-15T13:26:25.028Z,1.60
2023-03-15T13:29:08.582Z,1.50
2023-03-15T13:31:37.543Z,1.70
2023-03-15T13:34:15.401Z,1.80
2023-03-15T13:36:48.193Z,1.60
2023-03-15T13:42:03.692Z,1.60
2023-03-15T13:44:33.036Z,1.70
2023-03-15T13:47:00.982Z,2.50
2023-03-15T13:49:33.877Z,1.60
2023-03-15T13:54:31.972Z,1.60
2023-03-15T13:57:06.666Z,2.00
2023-03-15T13:59:45.215Z,1.70
2023-03-15T14:02:45.549Z,2.00
2023-03-15T14:05:18.052Z,1.90
2023-03-15T14:07:48.799Z,1.80
2023-03-15T14:10:17.126Z,2.00
2023-03-15T14:12:45.334Z,1.90
2023-03-15T14:15:21.915Z,2.00
2023-03-15T14:17:58.997Z,2.30
2023-03-15T14:20:30.762Z,2.30
2023-03-15T14:23:03.415Z,2.10
2023-03-15T14:25:35.278Z,2.10
2023-03-15T14:28:05.613Z,2.60
2023-03-15T14:30:37.391Z,2.10
2023-03-15T14:33:09.009Z,1.80
2023-03-15T14:35:36.898Z,1.80
2023-03-15T14:38:23.417Z,2.50
2023-03-15T14:40:53.283Z,1.90
2023-03-15T14:43:21.592Z,2.10
2023-03-15T14:45:49.710Z,2.30
2023-03-15T14:48:32.188Z,2.00
2023-03-15T14:51:00.085Z,1.90
2023-03-15T14:53:35.102Z,2.70
2023-03-15T14:56:04.585Z,1.50
2023-03-15T14:58:32.846Z,2.40
2023-03-15T15:01:03.249Z,2.40
2023-03-15T15:03:38.536Z,2.30
2023-03-15T15:06:09.776Z,2.30
2023-03-15T15:08:40.285Z,2.20
2023-03-15T15:11:08.847Z,2.10
2023-03-15T15:13:37.958Z,2.50
2023-03-15T15:16:06.294Z,2.00
2023-03-15T15:18:35.830Z,2.40
2023-03-15T15:21:22.212Z,3.30
2023-03-15T15:23:58.295Z,2.70
2023-03-15T15:26:29.316Z,2.40
2023-03-15T15:28:57.628Z,2.20
2023-03-15T15:31:27.273Z,2.10
2023-03-15T15:33:56.621Z,3.00
2023-03-15T15:36:27.731Z,2.40
2023-03-15T15:38:55.663Z,2.50
2023-03-15T15:41:25.977Z,2.50
2023-03-15T15:43:54.168Z,2.90
2023-03-15T15:46:24.007Z,2.30
2023-03-15T15:48:52.328Z,2.10
2023-03-15T15:51:29.140Z,2.00
2023-03-15T15:53:58.801Z,2.40
2023-03-15T15:56:35.323Z,2.10
2023-03-15T15:59:04.912Z,2.10
2023-03-15T16:01:33.388Z,2.20
2023-03-15T16:04:02.381Z,1.50
2023-03-15T16:06:31.104Z,1.70
2023-03-15T16:08:59.205Z,1.80
2023-03-15T16:11:27.710Z,1.50
2023-03-15T16:13:55.665Z,2.20
2023-03-15T16:16:23.709Z,2.40
2023-03-15T16:18:51.674Z,2.20
2023-03-15T16:21:28.659Z,2.50
2023-03-15T16:24:01.742Z,2.60
2023-03-15T16:26:29.784Z,3.20
2023-03-15T16:28:57.693Z,3.20
2023-03-15T16:31:25.460Z,3.70
2023-03-15T16:33:53.353Z,3.90
2023-03-15T16:36:22.361Z,4.90
2023-03-15T16:38:50.927Z,3.80
2023-03-15T16:41:19.095Z,4.00
2023-03-15T16:43:49.216Z,4.70
2023-03-15T16:46:18.242Z,4.10
2023-03-15T16:48:46.334Z,4.00
2023-03-15T16:51:15.448Z,4.30
2023-03-15T16:54:14.954Z,4.00
2023-03-15T16:56:45.580Z,3.80
2023-03-15T16:59:16.147Z,5.20
2023-03-15T17:01:45.694Z,4.80
2023-03-15T17:04:14.891Z,4.60
2023-03-15T17:06:47.536Z,4.00
2023-03-15T17:09:18.904Z,4.70
2023-03-15T17:11:48.593Z,3.80
2023-03-15T17:14:31.133Z,5.70
2023-03-15T17:16:59.847Z,5.00
2023-03-15T17:19:27.913Z,4.70
2023-03-15T17:21:55.705Z,4.80
2023-03-15T17:24:23.670Z,4.70
2023-03-15T17:26:51.831Z,5.10
2023-03-15T17:29:20.289Z,10.20
2023-03-15T17:31:48.611Z,5.20
2023-03-15T17:34:16.580Z,5.60
2023-03-15T17:36:45.071Z,5.20
2023-03-15T17:39:15.946Z,5.00
2023-03-15T17:41:47.083Z,5.40
2023-03-15T17:44:15.136Z,5.40
2023-03-15T17:46:43.860Z,5.70
2023-03-15T17:49:13.388Z,5.50
2023-03-15T17:51:41.568Z,5.10
2023-03-15T17:54:13.816Z,5.60
2023-03-15T17:56:42.257Z,5.20
2023-03-15T17:59:12.001Z,6.40
2023-03-15T18:01:43.807Z,5.60
2023-03-15T18:04:13.520Z,4.80
2023-03-15T18:06:42.240Z,5.70
2023-03-15T18:09:12.458Z,5.70
2023-03-15T18:11:45.983Z,4.90
2023-03-15T18:14:15.025Z,5.50
2023-03-15T18:16:44.016Z,6.00
2023-03-15T18:19:12.365Z,5.20
2023-03-15T18:21:41.008Z,5.50
2023-03-15T18:24:12.542Z,5.50
2023-03-15T18:26:40.598Z,5.50
2023-03-15T18:29:08.593Z,5.40
2023-03-15T18:31:36.960Z,7.20
2023-03-15T18:34:06.947Z,6.10
2023-03-15T18:36:34.799Z,6.10
2023-03-15T18:39:02.826Z,6.10
2023-03-15T18:41:31.098Z,6.30
2023-03-15T18:43:59.323Z,6.60
2023-03-15T18:46:27.694Z,7.00
2023-03-15T18:48:56.042Z,6.50
2023-03-15T18:51:26.080Z,6.80
2023-03-15T18:53:55.490Z,7.50
2023-03-15T18:56:30.844Z,8.80
2023-03-15T18:58:59.061Z,8.20
2023-03-15T19:01:27.809Z,10.30
2023-03-15T19:03:56.824Z,9.70
2023-03-15T19:06:25.571Z,9.10
2023-03-15T19:08:54.439Z,9.00
2023-03-15T19:11:24.215Z,9.40
2023-03-15T19:13:52.010Z,8.70
2023-03-15T19:16:21.027Z,7.80
2023-03-15T19:18:50.224Z,9.10
2023-03-15T19:21:19.498Z,7.80
2023-03-15T19:23:47.853Z,8.20
2023-03-15T19:26:15.665Z,8.40
2023-03-15T19:28:43.759Z,7.80
2023-03-15T19:31:11.908Z,8.10
2023-03-15T19:33:39.916Z,11.90
2023-03-15T19:36:08.553Z,14.40
2023-03-15T19:38:36.437Z,15.30
2023-03-15T19:41:06.163Z,25.50
2023-03-15T19:43:34.621Z,27.60
2023-03-15T19:46:04.494Z,27.20
2023-03-15T19:48:32.444Z,14.90
2023-03-15T19:51:00.931Z,12.70
2023-03-15T19:53:30.732Z,8.40
2023-03-15T19:55:58.710Z,12.30
2023-03-15T19:58:26.803Z,22.60
2023-03-15T20:00:55.022Z,24.70
2023-03-15T20:03:25.198Z,12.80
2023-03-15T20:05:53.024Z,14.80
2023-03-15T20:08:20.934Z,11.00
2023-03-15T20:10:48.820Z,10.30
2023-03-15T20:13:16.799Z,9.90
2023-03-15T20:15:44.772Z,9.70
2023-03-15T20:18:14.920Z,10.40
2023-03-15T20:20:42.832Z,8.90
2023-03-15T20:23:10.595Z,8.20
2023-03-15T20:25:38.457Z,9.30
2023-03-15T20:28:06.388Z,8.90
2023-03-15T20:30:34.284Z,8.40
2023-03-15T20:33:02.238Z,7.90
2023-03-15T20:35:30.366Z,7.50
2023-03-15T20:38:06.666Z,8.30
2023-03-15T20:40:38.595Z,7.50
2023-03-15T20:43:06.618Z,7.70
2023-03-15T20:45:35.019Z,8.10
2023-03-15T20:48:03.125Z,8.60
2023-03-15T20:50:31.427Z,9.20
2023-03-15T20:52:59.590Z,9.00
2023-03-15T20:55:28.136Z,9.40
2023-03-15T20:57:56.666Z,11.90
2023-03-15T21:00:25.029Z,17.70
2023-03-15T21:02:53.459Z,17.00
2023-03-15T21:05:22.857Z,11.20
2023-03-15T21:07:51.076Z,10.40
2023-03-15T21:10:19.320Z,9.30
2023-03-15T21:12:47.189Z,8.90
2023-03-15T21:15:17.986Z,8.70
2023-03-15T21:17:49.116Z,9.50
2023-03-15T21:20:18.376Z,10.50
2023-03-15T21:22:46.686Z,9.90
2023-03-15T21:25:15.083Z,10.80
2023-03-15T21:27:43.814Z,11.50
2023-03-15T21:30:14.168Z,11.70
2023-03-15T21:32:43.191Z,11.00
2023-03-15T21:35:11.991Z,11.90
2023-03-15T21:37:40.457Z,12.50
2023-03-15T21:40:10.127Z,13.20
2023-03-15T21:42:38.661Z,14.50
2023-03-15T21:45:08.642Z,13.90
2023-03-15T21:47:36.874Z,15.10
2023-03-15T21:50:05.301Z,15.40
2023-03-15T21:52:34.038Z,15.40
2023-03-15T21:55:01.828Z,15.20
2023-03-15T21:57:29.775Z,16.00
2023-03-15T21:59:57.583Z,16.40
2023-03-15T22:02:25.504Z,13.70
2023-03-15T22:04:53.412Z,12.30
2023-03-15T22:07:21.183Z,14.10
2023-03-15T22:09:48.957Z,14.70
2023-03-15T22:12:16.828Z,14.10
2023-03-15T22:14:45.938Z,14.20
2023-03-15T22:17:15.341Z,14.40
2023-03-15T22:19:43.296Z,13.80
2023-03-15T22:22:11.288Z,15.00
2023-03-15T22:24:39.200Z,14.70
2023-03-15T22:27:07.018Z,17.40
2023-03-15T22:29:34.987Z,15.80
2023-03-15T22:32:03.906Z,17.10
2023-03-15T22:34:34.201Z,15.80
2023-03-15T22:37:04.770Z,15.40
2023-03-15T22:39:34.174Z,14.80
2023-03-15T22:42:01.979Z,14.20
2023-03-15T22:44:30.583Z,13.60
2023-03-15T22:47:00.578Z,13.70
2023-03-15T22:49:28.329Z,13.40
2023-03-15T22:51:56.157Z,13.90
2023-03-15T22:54:24.898Z,14.00
2023-03-15T22:56:52.617Z,13.20
2023-03-15T22:59:20.492Z,13.30
2023-03-15T23:01:48.391Z,14.90
2023-03-15T23:04:16.265Z,13.30
2023-03-15T23:06:44.285Z,13.00
2023-03-15T23:09:12.105Z,13.80
2023-03-15T23:11:40.121Z,14.70
2023-03-15T23:14:07.994Z,12.90
2023-03-15T23:16:35.864Z,15.20
2023-03-15T23:19:03.778Z,14.50
2023-03-15T23:21:32.082Z,14.00
2023-03-15T23:24:00.111Z,13.70
2023-03-15T23:26:37.255Z,14.20
2023-03-15T23:29:11.047Z,13.50
2023-03-15T23:31:39.616Z,12.90
2023-03-15T23:34:08.200Z,13.20
2023-03-15T23:36:36.223Z,13.50
2023-03-15T23:39:04.715Z,13.50
2023-03-15T23:41:32.804Z,13.00
2023-03-15T23:44:01.032Z,13.20
2023-03-15T23:46:28.880Z,13.00
2023-03-15T23:48:56.739Z,14.00
2023-03-15T23:51:24.841Z,13.30
2023-03-15T23:53:52.755Z,14.00
2023-03-15T23:56:20.778Z,13.50
2023-03-15T23:58:48.539Z,14.60
